createdAt,value
2022-09-24T00:00:11.880Z,10.66
2022-09-24T00:02:39.976Z,10.68
2022-09-24T00:05:08.697Z,10.68
2022-09-24T00:07:38.041Z,10.67
2022-09-24T00:10:06.937Z,10.67
2022-09-24T00:12:34.929Z,10.69
2022-09-24T00:15:03.504Z,10.67
2022-09-24T00:17:31.590Z,10.66
2022-09-24T00:19:59.623Z,10.66
2022-09-24T00:22:27.591Z,10.68
2022-09-24T00:25:14.344Z,10.68
2022-09-24T00:27:42.371Z,10.66
2022-09-24T00:30:11.197Z,10.60
2022-09-24T00:32:39.131Z,10.60
2022-09-24T00:35:07.889Z,10.59
2022-09-24T00:37:35.913Z,10.57
2022-09-24T00:40:06.240Z,10.58
2022-09-24T00:42:34.381Z,10.58
2022-09-24T00:45:05.331Z,10.56
2022-09-24T00:47:37.179Z,10.53
2022-09-24T00:50:11.722Z,10.49
2022-09-24T00:52:44.757Z,10.48
2022-09-24T00:55:15.442Z,10.44
2022-09-24T00:57:44.646Z,10.40
2022-09-24T01:00:13.991Z,10.38
2022-09-24T01:02:46.382Z,10.31
2022-09-24T01:05:14.817Z,10.34
2022-09-24T01:07:46.601Z,10.32
2022-09-24T01:10:37.304Z,10.26
2022-09-24T01:13:15.012Z,10.28
2022-09-24T01:15:50.180Z,10.21
2022-09-24T01:18:26.328Z,10.15
2022-09-24T01:24:04.873Z,10.12
2022-09-24T01:27:05.816Z,10.07
2022-09-24T01:29:43.775Z,10.03
2022-09-24T01:32:20.242Z,10.04
2022-09-24T01:34:53.554Z,10.05
2022-09-24T01:37:25.187Z,10.00
2022-09-24T01:39:56.205Z,9.96
2022-09-24T01:42:27.134Z,9.94
2022-09-24T01:44:58.329Z,9.91
2022-09-24T01:47:35.008Z,9.91
2022-09-24T01:50:05.832Z,9.90
2022-09-24T01:52:40.821Z,9.91
2022-09-24T01:55:12.296Z,9.88
2022-09-24T01:57:44.142Z,9.86
2022-09-24T02:00:16.351Z,9.83
2022-09-24T02:02:47.633Z,9.84
2022-09-24T02:05:24.977Z,9.80
2022-09-24T02:07:59.563Z,9.80
2022-09-24T02:10:33.745Z,9.79
2022-09-24T02:13:06.630Z,9.79
2022-09-24T02:15:40.873Z,9.78
2022-09-24T02:18:11.629Z,9.83
2022-09-24T02:20:42.590Z,9.82
2022-09-24T02:23:12.155Z,9.80
2022-09-24T02:25:44.174Z,9.76
2022-09-24T02:28:12.275Z,9.77
2022-09-24T02:30:47.103Z,9.79
2022-09-24T02:33:34.391Z,9.82
2022-09-24T02:36:03.417Z,9.80
2022-09-24T02:38:31.456Z,9.83
2022-09-24T02:40:59.774Z,9.82
2022-09-24T02:43:28.064Z,9.78
2022-09-24T02:45:57.385Z,9.85
2022-09-24T02:48:25.364Z,9.81
2022-09-24T02:50:53.887Z,9.82
2022-09-24T02:53:21.873Z,9.79
2022-09-24T02:55:49.929Z,9.82
2022-09-24T02:58:17.997Z,9.83
2022-09-24T03:00:45.981Z,9.83
2022-09-24T03:03:15.457Z,9.84
2022-09-24T03:05:43.609Z,9.84
2022-09-24T03:08:11.763Z,9.83
2022-09-24T03:10:39.735Z,9.84
2022-09-24T03:13:07.847Z,9.87
2022-09-24T03:15:35.841Z,9.87
2022-09-24T03:18:04.268Z,9.92
2022-09-24T03:20:33.625Z,9.90
2022-09-24T03:23:01.673Z,9.93
2022-09-24T03:25:29.721Z,9.94
2022-09-24T03:27:57.714Z,9.87
2022-09-24T03:30:57.856Z,9.90
2022-09-24T03:33:25.920Z,9.93
2022-09-24T03:35:58.278Z,9.93
2022-09-24T03:38:26.416Z,9.95
2022-09-24T03:40:54.478Z,9.94
2022-09-24T03:43:22.607Z,9.94
2022-09-24T03:45:50.553Z,9.95
2022-09-24T03:48:18.645Z,9.99
2022-09-24T03:50:48.201Z,9.98
2022-09-24T03:53:18.422Z,9.99
2022-09-24T03:55:48.312Z,9.97
2022-09-24T03:58:17.073Z,9.98
2022-09-24T04:00:45.239Z,10.01
2022-09-24T04:03:13.234Z,9.98
2022-09-24T04:05:41.271Z,9.98
2022-09-24T04:08:09.266Z,9.97
2022-09-24T04:10:38.612Z,10.02
2022-09-24T04:13:06.602Z,10.02
2022-09-24T04:15:34.574Z,10.01
2022-09-24T04:18:02.541Z,10.02
2022-09-24T04:20:31.458Z,10.02
2022-09-24T04:23:00.080Z,10.04
2022-09-24T04:25:30.622Z,10.02
2022-09-24T04:28:01.938Z,10.05
2022-09-24T04:30:30.981Z,10.03
2022-09-24T04:33:00.843Z,10.09
2022-09-24T04:35:30.896Z,10.08
2022-09-24T04:38:00.359Z,10.08
2022-09-24T04:40:28.911Z,10.06
2022-09-24T04:42:56.964Z,10.08
2022-09-24T04:45:26.933Z,10.08
2022-09-24T04:47:57.519Z,10.08
2022-09-24T04:50:26.806Z,10.07
2022-09-24T04:52:55.115Z,10.08
2022-09-24T04:55:23.238Z,10.06
2022-09-24T04:57:51.393Z,10.07
2022-09-24T05:00:21.954Z,10.07
2022-09-24T05:02:57.542Z,10.07
2022-09-24T05:05:25.914Z,10.10
2022-09-24T05:07:56.692Z,10.11
2022-09-24T05:10:25.137Z,10.10
2022-09-24T05:12:53.168Z,10.10
2022-09-24T05:15:21.264Z,10.09
2022-09-24T05:17:49.564Z,10.10
2022-09-24T05:20:19.551Z,10.11
2022-09-24T05:22:49.297Z,10.10
2022-09-24T05:25:19.426Z,10.09
2022-09-24T05:27:46.892Z,10.13
2022-09-24T05:30:16.114Z,10.11
2022-09-24T05:32:44.292Z,10.13
2022-09-24T05:35:13.757Z,10.14
2022-09-24T05:37:43.158Z,10.15
2022-09-24T05:40:28.998Z,10.16
2022-09-24T05:43:02.354Z,10.20
2022-09-24T05:45:30.553Z,10.19
2022-09-24T05:48:00.063Z,10.23
2022-09-24T05:50:28.564Z,10.26
2022-09-24T05:52:57.907Z,10.28
2022-09-24T05:55:30.000Z,10.29
2022-09-24T05:58:04.328Z,10.33
2022-09-24T06:00:32.558Z,10.35
2022-09-24T06:03:08.967Z,10.39
2022-09-24T06:05:37.023Z,10.45
2022-09-24T06:08:08.698Z,10.48
2022-09-24T06:10:37.463Z,10.51
2022-09-24T06:13:05.524Z,10.57
2022-09-24T06:15:35.001Z,10.61
2022-09-24T06:18:02.939Z,10.64
2022-09-24T06:20:30.983Z,10.69
2022-09-24T06:22:59.116Z,10.74
2022-09-24T06:25:28.573Z,10.79
2022-09-24T06:28:00.288Z,10.82
2022-09-24T06:30:29.427Z,10.86
2022-09-24T06:33:04.481Z,10.89
2022-09-24T06:35:32.842Z,10.90
2022-09-24T06:38:00.874Z,10.92
2022-09-24T06:40:35.559Z,10.95
2022-09-24T06:43:05.184Z,10.98
2022-09-24T06:45:33.420Z,11.04
2022-09-24T06:48:03.280Z,11.07
2022-09-24T06:50:34.317Z,11.10
2022-09-24T06:53:05.430Z,11.13
2022-09-24T06:55:35.403Z,11.17
2022-09-24T06:58:05.327Z,11.21
2022-09-24T07:00:33.850Z,11.24
2022-09-24T07:03:02.282Z,11.27
2022-09-24T07:05:30.345Z,11.31
2022-09-24T07:07:58.698Z,11.35
2022-09-24T07:10:27.526Z,11.40
2022-09-24T07:12:57.151Z,11.45
2022-09-24T07:15:25.852Z,11.47
2022-09-24T07:17:56.711Z,11.51
2022-09-24T07:20:28.115Z,11.53
2022-09-24T07:22:57.064Z,11.58
2022-09-24T07:25:25.545Z,11.63
2022-09-24T07:27:54.120Z,11.66
2022-09-24T07:30:23.754Z,11.73
2022-09-24T07:32:56.304Z,11.76
2022-09-24T07:35:25.039Z,11.80
2022-09-24T07:38:00.953Z,11.85
2022-09-24T07:40:30.864Z,11.92
2022-09-24T07:43:00.192Z,11.98
2022-09-24T07:45:31.634Z,12.02
2022-09-24T07:48:00.889Z,12.07
2022-09-24T07:50:30.622Z,12.10
2022-09-24T07:52:58.890Z,12.15
2022-09-24T07:55:27.714Z,12.18
2022-09-24T07:57:57.510Z,12.21
2022-09-24T08:00:26.521Z,12.25
2022-09-24T08:02:56.661Z,12.29
2022-09-24T08:05:25.487Z,12.32
2022-09-24T08:07:54.470Z,12.35
2022-09-24T08:10:23.086Z,12.36
2022-09-24T08:12:51.879Z,12.37
2022-09-24T08:15:22.913Z,12.37
2022-09-24T08:17:51.856Z,12.36
2022-09-24T08:20:23.677Z,12.36
2022-09-24T08:22:52.024Z,12.34
2022-09-24T08:25:20.222Z,12.36
2022-09-24T08:27:48.886Z,12.37
2022-09-24T08:30:17.531Z,12.42
2022-09-24T08:32:47.928Z,12.44
2022-09-24T08:35:16.702Z,12.45
2022-09-24T08:37:46.958Z,12.44
2022-09-24T08:40:21.428Z,12.44
2022-09-24T08:42:56.438Z,12.42
2022-09-24T08:45:42.305Z,12.43
2022-09-24T08:48:20.296Z,12.44
2022-09-24T08:50:58.452Z,12.44
2022-09-24T08:53:32.647Z,12.39
2022-09-24T08:56:01.771Z,12.38
2022-09-24T08:58:44.164Z,12.38
2022-09-24T09:01:23.899Z,12.33
2022-09-24T09:03:58.074Z,12.37
2022-09-24T09:06:47.460Z,12.36
2022-09-24T09:09:20.277Z,12.36
2022-09-24T09:11:52.003Z,12.40
2022-09-24T09:14:29.260Z,12.41
2022-09-24T09:17:02.558Z,12.44
2022-09-24T09:19:35.579Z,12.46
2022-09-24T09:22:12.532Z,12.46
2022-09-24T09:24:49.094Z,12.50
2022-09-24T09:27:18.724Z,12.51
2022-09-24T09:29:49.997Z,12.52
2022-09-24T09:32:29.649Z,12.58
2022-09-24T09:35:05.135Z,12.63
2022-09-24T09:37:42.396Z,12.69
2022-09-24T09:40:31.839Z,12.77
2022-09-24T09:43:03.389Z,12.86
2022-09-24T09:45:38.037Z,12.93
2022-09-24T09:48:12.864Z,13.00
2022-09-24T09:50:45.715Z,13.07
2022-09-24T09:53:22.157Z,13.20
2022-09-24T09:55:57.059Z,13.31
2022-09-24T09:58:27.536Z,13.38
2022-09-24T10:01:07.118Z,13.40
2022-09-24T10:03:47.725Z,13.43
2022-09-24T10:06:25.240Z,13.45
2022-09-24T10:08:54.109Z,13.43
2022-09-24T10:11:24.047Z,13.48
2022-09-24T10:14:03.394Z,13.47
2022-09-24T10:16:32.212Z,13.48
2022-09-24T10:19:01.646Z,13.47
2022-09-24T10:21:34.643Z,13.48
2022-09-24T10:24:04.738Z,13.49
2022-09-24T10:26:44.744Z,13.51
2022-09-24T10:29:33.520Z,13.51
2022-09-24T10:32:02.867Z,13.58
2022-09-24T10:34:31.578Z,13.62
2022-09-24T10:37:06.062Z,13.68
2022-09-24T10:39:37.068Z,13.73
2022-09-24T10:42:08.053Z,13.81
2022-09-24T10:44:38.589Z,13.89
2022-09-24T10:47:19.413Z,13.95
2022-09-24T10:50:07.603Z,14.02
2022-09-24T10:52:47.365Z,14.09
2022-09-24T10:55:39.227Z,14.17
2022-09-24T10:58:29.056Z,14.16
2022-09-24T11:01:10.058Z,14.22
2022-09-24T11:03:55.567Z,14.26
2022-09-24T11:06:43.047Z,14.35
2022-09-24T11:09:25.492Z,14.36
2022-09-24T11:12:08.051Z,14.38
2022-09-24T11:14:54.717Z,14.43
2022-09-24T11:17:34.551Z,14.48
2022-09-24T11:20:24.330Z,14.55
2022-09-24T11:23:12.634Z,14.66
2022-09-24T11:25:49.138Z,14.73
2022-09-24T11:28:36.615Z,14.68
2022-09-24T11:31:13.561Z,14.64
2022-09-24T11:34:05.821Z,14.68
2022-09-24T11:36:56.564Z,14.68
2022-09-24T11:39:39.047Z,14.69
2022-09-24T11:42:20.739Z,14.69
2022-09-24T11:45:15.815Z,14.70
2022-09-24T11:48:06.772Z,14.69
2022-09-24T11:50:50.164Z,14.67
2022-09-24T11:53:27.281Z,14.65
2022-09-24T11:55:59.759Z,14.66
2022-09-24T11:58:33.362Z,14.66
2022-09-24T12:01:10.540Z,14.66
2022-09-24T12:03:48.270Z,14.63
2022-09-24T12:06:21.262Z,14.64
2022-09-24T12:08:58.315Z,14.62
2022-09-24T12:11:31.757Z,14.56
2022-09-24T12:14:04.839Z,14.53
2022-09-24T12:16:38.610Z,14.50
2022-09-24T12:19:16.609Z,14.46
2022-09-24T12:21:47.903Z,14.45
2022-09-24T12:24:23.483Z,14.43
2022-09-24T12:26:57.814Z,14.45
2022-09-24T12:30:02.552Z,14.43
2022-09-24T12:32:56.188Z,14.47
2022-09-24T12:35:40.256Z,14.56
2022-09-24T12:38:14.799Z,14.63
2022-09-24T12:41:09.165Z,14.64
2022-09-24T12:43:44.517Z,14.66
2022-09-24T12:46:18.242Z,14.72
2022-09-24T12:48:48.664Z,14.69
2022-09-24T12:51:22.402Z,14.75
2022-09-24T12:54:00.243Z,14.79
2022-09-24T12:56:32.011Z,14.76
2022-09-24T12:59:00.603Z,14.74
2022-09-24T13:01:32.234Z,14.72
2022-09-24T13:04:24.815Z,14.70
2022-09-24T13:06:54.970Z,14.72
2022-09-24T13:09:35.449Z,14.74
2022-09-24T13:12:08.004Z,14.71
2022-09-24T13:14:36.748Z,14.75
2022-09-24T13:17:08.101Z,14.75
2022-09-24T13:19:41.070Z,14.72
2022-09-24T13:22:24.108Z,14.73
2022-09-24T13:24:54.760Z,14.78
2022-09-24T13:27:37.648Z,14.83
2022-09-24T13:30:17.779Z,14.86
2022-09-24T13:32:57.148Z,14.90
2022-09-24T13:35:29.356Z,14.93
2022-09-24T13:38:06.812Z,14.96
2022-09-24T13:40:41.084Z,15.02
2022-09-24T13:43:17.131Z,15.07
2022-09-24T13:45:46.817Z,15.08
2022-09-24T13:48:24.174Z,15.09
2022-09-24T13:50:54.642Z,15.13
2022-09-24T13:53:31.706Z,15.16
2022-09-24T13:56:04.204Z,15.17
2022-09-24T13:58:34.201Z,15.18
2022-09-24T14:01:08.731Z,15.17
2022-09-24T14:03:40.949Z,15.16
2022-09-24T14:06:13.661Z,15.19
2022-09-24T14:08:46.304Z,15.24
2022-09-24T14:11:17.653Z,15.23
2022-09-24T14:13:46.665Z,15.21
2022-09-24T14:16:19.934Z,15.21
2022-09-24T14:18:49.366Z,15.25
2022-09-24T14:21:23.752Z,15.26
2022-09-24T14:23:58.974Z,15.23
2022-09-24T14:26:32.053Z,15.23
2022-09-24T14:29:02.898Z,15.19
2022-09-24T14:31:31.694Z,15.22
2022-09-24T14:34:03.152Z,15.28
2022-09-24T14:36:31.469Z,15.31
2022-09-24T14:39:05.040Z,15.30
2022-09-24T14:41:35.610Z,15.30
2022-09-24T14:44:07.850Z,15.29
2022-09-24T14:46:39.263Z,15.32
2022-09-24T14:49:18.237Z,15.28
2022-09-24T14:51:54.655Z,15.31
2022-09-24T14:54:30.870Z,15.31
2022-09-24T14:57:11.319Z,15.27
2022-09-24T14:59:41.836Z,15.25
2022-09-24T15:02:19.681Z,15.21
2022-09-24T15:04:50.340Z,15.21
2022-09-24T15:07:22.591Z,15.21
2022-09-24T15:09:54.171Z,15.21
2022-09-24T15:12:30.804Z,15.22
2022-09-24T15:15:01.183Z,15.23
2022-09-24T15:17:32.422Z,15.22
2022-09-24T15:20:01.634Z,15.19
2022-09-24T15:22:31.464Z,15.20
2022-09-24T15:25:02.510Z,15.15
2022-09-24T15:27:32.700Z,15.16
2022-09-24T15:30:02.686Z,15.12
2022-09-24T15:32:33.844Z,15.12
2022-09-24T15:35:07.777Z,15.13
2022-09-24T15:37:38.960Z,15.13
2022-09-24T15:40:16.918Z,15.11
2022-09-24T15:42:45.123Z,15.09
2022-09-24T15:45:18.375Z,15.15
2022-09-24T15:47:46.985Z,15.20
2022-09-24T15:50:15.509Z,15.21
2022-09-24T15:52:48.122Z,15.17
2022-09-24T15:55:20.381Z,15.18
2022-09-24T15:57:49.026Z,15.13
2022-09-24T16:00:19.436Z,15.11
2022-09-24T16:02:50.315Z,15.10
2022-09-24T16:05:19.776Z,15.11
2022-09-24T16:07:48.263Z,15.11
2022-09-24T16:10:18.560Z,15.08
2022-09-24T16:12:46.823Z,14.97
2022-09-24T16:15:17.242Z,14.95
2022-09-24T16:17:45.526Z,14.91
2022-09-24T16:20:13.873Z,14.85
2022-09-24T16:22:42.079Z,14.78
2022-09-24T16:25:10.808Z,14.76
2022-09-24T16:27:41.107Z,14.71
2022-09-24T16:30:10.077Z,14.62
2022-09-24T16:32:38.452Z,14.63
2022-09-24T16:35:07.861Z,14.60
2022-09-24T16:37:36.247Z,14.56
2022-09-24T16:40:05.207Z,14.57
2022-09-24T16:42:34.828Z,14.53
2022-09-24T16:45:04.934Z,14.49
2022-09-24T16:47:33.381Z,14.45
2022-09-24T16:50:01.653Z,14.44
2022-09-24T16:52:31.572Z,14.43
2022-09-24T16:54:59.719Z,14.37
2022-09-24T16:57:28.047Z,14.36
2022-09-24T16:59:56.299Z,14.32
2022-09-24T17:02:26.102Z,14.28
2022-09-24T17:04:59.413Z,14.26
2022-09-24T17:07:31.277Z,14.25
2022-09-24T17:10:13.651Z,14.20
2022-09-24T17:12:43.918Z,14.14
2022-09-24T17:15:13.008Z,14.10
2022-09-24T17:17:49.564Z,14.05
2022-09-24T17:20:19.439Z,14.03
2022-09-24T17:22:48.609Z,14.00
2022-09-24T17:25:17.176Z,13.97
2022-09-24T17:27:45.592Z,13.92
2022-09-24T17:30:14.830Z,13.92
2022-09-24T17:32:44.791Z,13.89
2022-09-24T17:35:13.519Z,13.87
2022-09-24T17:37:41.860Z,13.84
2022-09-24T17:40:11.207Z,13.83
2022-09-24T17:42:45.895Z,13.82
2022-09-24T17:45:14.371Z,13.78
2022-09-24T17:48:00.577Z,13.75
2022-09-24T17:50:30.030Z,13.73
2022-09-24T17:52:59.345Z,13.77
2022-09-24T17:55:27.985Z,13.73
2022-09-24T17:57:56.141Z,13.70
2022-09-24T18:00:24.386Z,13.67
2022-09-24T18:02:56.656Z,13.68
2022-09-24T18:05:25.580Z,13.67
2022-09-24T18:07:54.090Z,13.65
2022-09-24T18:10:22.392Z,13.62
2022-09-24T18:12:50.791Z,13.62
2022-09-24T18:15:19.039Z,13.59
2022-09-24T18:17:47.345Z,13.59
2022-09-24T18:20:17.276Z,13.58
2022-09-24T18:22:45.549Z,13.55
2022-09-24T18:25:14.154Z,13.51
2022-09-24T18:27:45.444Z,13.50
2022-09-24T18:30:15.650Z,13.51
2022-09-24T18:32:46.815Z,13.48
2022-09-24T18:35:16.639Z,13.48
2022-09-24T18:37:44.858Z,13.46
2022-09-24T18:40:13.458Z,13.43
2022-09-24T18:42:41.959Z,13.41
2022-09-24T18:45:11.085Z,13.40
2022-09-24T18:47:39.514Z,13.35
2022-09-24T18:50:09.113Z,13.34
2022-09-24T18:52:38.923Z,13.35
2022-09-24T18:55:08.581Z,13.31
2022-09-24T18:57:37.895Z,13.28
2022-09-24T19:00:27.438Z,13.30
2022-09-24T19:02:55.970Z,13.28
2022-09-24T19:05:24.403Z,13.26
2022-09-24T19:07:54.339Z,13.23
2022-09-24T19:10:22.640Z,13.24
2022-09-24T19:12:53.471Z,13.23
2022-09-24T19:15:22.058Z,13.23
2022-09-24T19:17:53.166Z,13.21
2022-09-24T19:20:21.833Z,13.21
2022-09-24T19:22:59.717Z,13.19
2022-09-24T19:25:33.226Z,13.20
2022-09-24T19:28:03.645Z,13.18
2022-09-24T19:30:32.055Z,13.18
2022-09-24T19:33:00.478Z,13.19
2022-09-24T19:35:29.197Z,13.18
2022-09-24T19:37:57.452Z,13.15
2022-09-24T19:40:25.874Z,13.15
2022-09-24T19:42:56.210Z,13.14
2022-09-24T19:45:25.674Z,13.10
2022-09-24T19:47:54.231Z,13.09
2022-09-24T19:50:22.690Z,13.08
2022-09-24T19:52:53.174Z,13.06
2022-09-24T19:55:26.181Z,13.07
2022-09-24T19:57:58.527Z,13.07
2022-09-24T20:00:26.702Z,13.06
2022-09-24T20:02:55.060Z,13.02
2022-09-24T20:05:23.169Z,13.01
2022-09-24T20:07:51.327Z,12.98
2022-09-24T20:10:19.439Z,12.98
2022-09-24T20:12:51.826Z,12.96
2022-09-24T20:15:21.802Z,12.94
2022-09-24T20:17:49.941Z,12.93
2022-09-24T20:20:18.239Z,12.90
2022-09-24T20:22:46.320Z,12.88
2022-09-24T20:25:14.354Z,12.86
2022-09-24T20:27:53.360Z,12.80
2022-09-24T20:30:23.863Z,12.80
2022-09-24T20:32:52.118Z,12.77
2022-09-24T20:35:21.368Z,12.74
2022-09-24T20:37:49.505Z,12.70
2022-09-24T20:40:17.784Z,12.66
2022-09-24T20:42:46.101Z,12.66
2022-09-24T20:45:14.285Z,12.61
2022-09-24T20:47:43.927Z,12.59
2022-09-24T20:50:12.152Z,12.54
2022-09-24T20:52:40.321Z,12.50
2022-09-24T20:55:09.865Z,12.48
2022-09-24T20:57:38.124Z,12.49
2022-09-24T21:00:07.944Z,12.45
2022-09-24T21:02:41.165Z,12.39
2022-09-24T21:05:11.435Z,12.37
2022-09-24T21:07:42.881Z,12.35
2022-09-24T21:10:12.943Z,12.34
2022-09-24T21:12:41.217Z,12.32
2022-09-24T21:15:11.384Z,12.30
2022-09-24T21:17:39.520Z,12.27
2022-09-24T21:20:10.210Z,12.27
2022-09-24T21:22:39.887Z,12.25
2022-09-24T21:25:08.640Z,12.23
2022-09-24T21:27:37.036Z,12.24
2022-09-24T21:30:05.894Z,12.23
2022-09-24T21:32:38.763Z,12.21
2022-09-24T21:35:07.951Z,12.22
2022-09-24T21:37:36.129Z,12.22
2022-09-24T21:40:06.146Z,12.23
2022-09-24T21:42:34.424Z,12.24
2022-09-24T21:45:02.571Z,12.25
2022-09-24T21:47:30.607Z,12.26
2022-09-24T21:49:59.256Z,12.24
2022-09-24T21:52:31.022Z,12.24
2022-09-24T21:54:59.071Z,12.21
2022-09-24T21:57:28.508Z,12.24
2022-09-24T22:00:04.428Z,12.23
2022-09-24T22:02:33.487Z,12.22
2022-09-24T22:05:01.615Z,12.22
2022-09-24T22:07:29.692Z,12.18
2022-09-24T22:09:57.885Z,12.18
2022-09-24T22:12:26.013Z,12.19
2022-09-24T22:14:55.460Z,12.20
2022-09-24T22:17:23.489Z,12.15
2022-09-24T22:19:51.977Z,12.15
2022-09-24T22:22:21.355Z,12.10
2022-09-24T22:24:49.860Z,12.10
2022-09-24T22:27:18.298Z,12.08
2022-09-24T22:29:47.037Z,12.07
2022-09-24T22:32:16.412Z,12.05
2022-09-24T22:35:01.611Z,12.05
2022-09-24T22:37:31.098Z,12.04
2022-09-24T22:39:59.136Z,12.04
2022-09-24T22:42:27.253Z,12.03
2022-09-24T22:44:58.634Z,11.97
2022-09-24T22:47:28.075Z,11.93
2022-09-24T22:49:56.202Z,11.92
2022-09-24T22:52:24.293Z,11.86
2022-09-24T22:54:52.397Z,11.84
2022-09-24T22:57:20.533Z,11.88
2022-09-24T22:59:48.675Z,11.84
2022-09-24T23:02:16.695Z,11.86
2022-09-24T23:04:46.223Z,11.87
2022-09-24T23:07:16.445Z,11.83
2022-09-24T23:09:44.644Z,11.82
2022-09-24T23:12:12.635Z,11.82
2022-09-24T23:14:41.396Z,11.84
2022-09-24T23:17:09.481Z,11.81
2022-09-24T23:19:49.483Z,11.78
2022-09-24T23:22:19.500Z,11.80
2022-09-24T23:24:49.317Z,11.83
2022-09-24T23:27:20.288Z,11.85
2022-09-24T23:29:48.849Z,11.83
2022-09-24T23:32:17.296Z,11.81
2022-09-24T23:34:46.323Z,11.81
2022-09-24T23:37:14.415Z,11.83
2022-09-24T23:39:43.816Z,11.82
2022-09-24T23:42:11.882Z,11.84
2022-09-24T23:44:39.923Z,11.83
2022-09-24T23:47:07.986Z,11.84
2022-09-24T23:49:36.001Z,11.85
2022-09-24T23:52:04.099Z,11.85
2022-09-24T23:54:32.178Z,11.85
2022-09-24T23:57:02.208Z,11.83
2022-09-24T23:59:30.304Z,11.85
